createdAt,value
2022-08-17T00:00:43.835Z,19.40
2022-08-17T00:03:41.997Z,19.40
2022-08-17T00:06:29.985Z,19.40
2022-08-17T00:09:18.499Z,19.40
2022-08-17T00:12:41.114Z,19.50
2022-08-17T00:15:13.943Z,19.50
2022-08-17T00:17:59.853Z,19.40
2022-08-17T00:20:46.445Z,19.30
2022-08-17T00:23:32.860Z,19.00
2022-08-17T00:26:44.496Z,18.80
2022-08-17T00:29:26.858Z,18.60
2022-08-17T00:33:14.245Z,18.60
2022-08-17T00:35:27.710Z,18.60
2022-08-17T00:38:14.229Z,18.70
2022-08-17T00:41:08.802Z,18.80
2022-08-17T00:43:59.142Z,18.80
2022-08-17T00:46:45.417Z,18.80
2022-08-17T00:49:31.810Z,18.80
2022-08-17T00:52:23.088Z,18.80
2022-08-17T00:55:09.908Z,18.80
2022-08-17T00:58:00.560Z,18.70
2022-08-17T01:00:48.075Z,18.50
2022-08-17T01:03:36.974Z,18.40
2022-08-17T01:06:24.297Z,18.40
2022-08-17T01:09:10.463Z,18.40
2022-08-17T01:11:56.529Z,18.40
2022-08-17T01:14:43.024Z,18.40
2022-08-17T01:17:28.928Z,18.30
2022-08-17T01:20:15.037Z,18.40
2022-08-17T01:23:01.959Z,18.40
2022-08-17T01:26:01.266Z,18.40
2022-08-17T01:28:54.242Z,18.40
2022-08-17T01:31:50.008Z,18.40
2022-08-17T01:34:42.570Z,18.30
2022-08-17T01:37:37.944Z,18.30
2022-08-17T01:40:40.870Z,18.40
2022-08-17T01:43:32.046Z,18.40
2022-08-17T01:46:26.969Z,18.30
2022-08-17T01:49:13.097Z,18.40
2022-08-17T01:52:07.121Z,18.40
2022-08-17T01:54:53.734Z,18.40
2022-08-17T01:57:39.772Z,18.30
2022-08-17T02:00:27.037Z,18.30
2022-08-17T02:03:34.981Z,18.30
2022-08-17T02:06:27.553Z,18.40
2022-08-17T02:09:16.739Z,18.50
2022-08-17T02:12:38.202Z,18.40
2022-08-17T02:15:12.405Z,18.30
2022-08-17T02:17:58.513Z,18.20
2022-08-17T02:20:44.771Z,18.10
2022-08-17T02:23:34.605Z,18.00
2022-08-17T02:26:24.038Z,18.00
2022-08-17T02:29:13.613Z,17.90
2022-08-17T02:32:01.864Z,17.90
2022-08-17T02:34:48.308Z,18.00
2022-08-17T02:37:35.404Z,18.10
2022-08-17T02:40:35.619Z,18.10
2022-08-17T02:43:22.489Z,18.20
2022-08-17T02:46:08.879Z,18.20
2022-08-17T02:48:54.890Z,18.20
2022-08-17T02:51:40.919Z,18.10
2022-08-17T02:54:40.354Z,18.10
2022-08-17T02:57:28.142Z,18.00
2022-08-17T03:00:29.474Z,17.80
2022-08-17T03:03:20.093Z,17.60
2022-08-17T03:06:07.790Z,17.60
2022-08-17T03:08:54.618Z,17.70
2022-08-17T03:11:40.605Z,17.90
2022-08-17T03:14:26.564Z,18.00
2022-08-17T03:17:17.127Z,18.10
2022-08-17T03:20:05.440Z,18.20
2022-08-17T03:22:55.013Z,18.30
2022-08-17T03:25:47.927Z,18.30
2022-08-17T03:28:39.454Z,18.30
2022-08-17T03:31:25.646Z,18.30
2022-08-17T03:34:11.551Z,18.30
2022-08-17T03:36:57.431Z,18.30
2022-08-17T03:39:43.441Z,18.30
2022-08-17T03:42:32.215Z,18.20
2022-08-17T03:45:40.933Z,18.20
2022-08-17T03:48:46.897Z,18.20
2022-08-17T03:51:51.282Z,18.10
2022-08-17T03:54:56.146Z,18.10
2022-08-17T03:57:41.968Z,18.00
2022-08-17T04:00:27.946Z,18.00
2022-08-17T04:03:14.942Z,18.00
2022-08-17T04:06:02.249Z,18.00
2022-08-17T04:08:48.409Z,18.00
2022-08-17T04:11:35.542Z,17.90
2022-08-17T04:14:21.797Z,17.90
2022-08-17T04:17:07.834Z,17.80
2022-08-17T04:19:54.821Z,17.80
2022-08-17T04:22:40.741Z,17.70
2022-08-17T04:25:27.368Z,17.70
2022-08-17T04:28:14.661Z,17.70
2022-08-17T04:31:02.187Z,17.80
2022-08-17T04:33:48.262Z,17.80
2022-08-17T04:36:35.139Z,17.70
2022-08-17T04:39:21.004Z,17.60
2022-08-17T04:42:17.219Z,17.60
2022-08-17T04:45:04.758Z,17.50
2022-08-17T04:47:51.125Z,17.50
2022-08-17T04:50:42.750Z,17.40
2022-08-17T04:53:30.882Z,17.40
2022-08-17T04:56:18.116Z,17.50
2022-08-17T04:59:12.582Z,17.60
2022-08-17T05:01:58.718Z,17.70
2022-08-17T05:04:44.663Z,17.90
2022-08-17T05:07:31.707Z,18.00
2022-08-17T05:10:18.149Z,18.10
2022-08-17T05:13:10.810Z,18.20
2022-08-17T05:16:00.577Z,18.10
2022-08-17T05:18:46.942Z,18.20
2022-08-17T05:21:32.745Z,18.20
2022-08-17T05:24:39.091Z,18.30
2022-08-17T05:27:24.970Z,18.30
2022-08-17T05:30:17.500Z,18.30
2022-08-17T05:33:10.299Z,18.40
2022-08-17T05:35:58.621Z,18.50
2022-08-17T05:38:44.902Z,18.70
2022-08-17T05:41:30.868Z,18.90
2022-08-17T05:44:17.134Z,18.90
2022-08-17T05:47:05.413Z,18.90
2022-08-17T05:49:56.049Z,18.90
2022-08-17T05:53:00.318Z,18.90
2022-08-17T05:55:57.384Z,18.80
2022-08-17T05:58:55.469Z,18.70
2022-08-17T06:02:18.926Z,18.60
2022-08-17T06:05:14.354Z,18.60
2022-08-17T06:08:11.103Z,18.60
2022-08-17T06:11:30.286Z,18.60
2022-08-17T06:14:43.191Z,18.70
2022-08-17T06:17:31.112Z,18.80
2022-08-17T06:20:17.459Z,18.90
2022-08-17T06:23:08.725Z,19.00
2022-08-17T06:26:03.731Z,19.20
2022-08-17T06:29:04.324Z,19.20
2022-08-17T06:31:54.641Z,19.40
2022-08-17T06:34:43.620Z,19.40
2022-08-17T06:37:33.271Z,19.60
2022-08-17T06:40:36.378Z,19.70
2022-08-17T06:43:33.578Z,19.80
2022-08-17T06:46:29.702Z,19.80
2022-08-17T06:49:33.989Z,20.00
2022-08-17T06:52:46.090Z,20.10
2022-08-17T06:55:58.565Z,20.20
2022-08-17T06:58:45.500Z,20.30
2022-08-17T07:01:36.776Z,20.50
2022-08-17T07:04:30.048Z,20.60
2022-08-17T07:07:38.247Z,20.70
2022-08-17T07:10:26.077Z,20.90
2022-08-17T07:13:33.436Z,21.00
2022-08-17T07:16:20.291Z,21.10
2022-08-17T07:19:07.554Z,21.30
2022-08-17T07:22:00.082Z,21.40
2022-08-17T07:24:51.529Z,21.60
2022-08-17T07:27:37.349Z,21.70
2022-08-17T07:30:47.365Z,21.80
2022-08-17T07:33:36.686Z,21.90
2022-08-17T07:36:30.063Z,22.10
2022-08-17T07:39:27.659Z,22.30
2022-08-17T07:42:13.886Z,22.50
2022-08-17T07:45:19.726Z,22.60
2022-08-17T07:48:21.386Z,22.80
2022-08-17T07:51:19.143Z,22.80
2022-08-17T07:54:30.229Z,22.90
2022-08-17T07:57:19.434Z,23.00
2022-08-17T08:00:16.501Z,23.10
2022-08-17T08:03:27.303Z,23.10
2022-08-17T08:06:24.466Z,23.20
2022-08-17T08:09:48.253Z,23.30
2022-08-17T08:13:00.402Z,23.30
2022-08-17T08:15:53.611Z,23.40
2022-08-17T08:18:54.451Z,23.40
2022-08-17T08:22:09.574Z,23.50
2022-08-17T08:25:11.211Z,23.60
2022-08-17T08:28:29.834Z,23.60
2022-08-17T08:31:43.882Z,23.70
2022-08-17T08:35:06.514Z,23.80
2022-08-17T08:38:01.225Z,23.90
2022-08-17T08:41:08.499Z,24.00
2022-08-17T08:44:18.794Z,24.20
2022-08-17T08:47:14.700Z,24.30
2022-08-17T08:50:37.974Z,24.50
2022-08-17T08:53:35.733Z,24.60
2022-08-17T08:57:19.842Z,24.80
2022-08-17T09:00:07.423Z,24.90
2022-08-17T09:03:11.706Z,24.90
2022-08-17T09:06:37.674Z,25.00
2022-08-17T09:10:12.132Z,25.00
2022-08-17T09:13:14.576Z,25.20
2022-08-17T09:16:30.092Z,25.30
2022-08-17T09:19:59.853Z,25.50
2022-08-17T09:22:52.798Z,25.70
2022-08-17T09:25:58.404Z,25.90
2022-08-17T09:28:52.970Z,26.00
2022-08-17T09:31:55.066Z,26.20
2022-08-17T09:34:48.499Z,26.40
2022-08-17T09:37:43.054Z,26.60
2022-08-17T09:40:51.206Z,26.70
2022-08-17T09:43:48.750Z,26.90
2022-08-17T09:46:53.271Z,27.20
2022-08-17T09:49:53.198Z,27.30
2022-08-17T09:52:41.122Z,27.60
2022-08-17T09:55:46.562Z,27.70
2022-08-17T09:58:44.926Z,27.90
2022-08-17T10:01:50.598Z,28.20
2022-08-17T10:04:44.921Z,28.50
2022-08-17T10:07:44.363Z,28.80
2022-08-17T10:10:42.644Z,28.90
2022-08-17T10:14:01.727Z,29.10
2022-08-17T10:17:27.412Z,29.40
2022-08-17T10:20:45.479Z,29.70
2022-08-17T10:23:50.230Z,30.00
2022-08-17T10:26:40.409Z,30.10
2022-08-17T10:29:55.629Z,30.30
2022-08-17T10:33:14.465Z,30.40
2022-08-17T10:36:10.714Z,30.50
2022-08-17T10:39:31.561Z,30.40
2022-08-17T10:42:32.987Z,30.40
2022-08-17T10:45:29.559Z,30.20
2022-08-17T10:48:30.649Z,30.10
2022-08-17T10:51:37.987Z,30.00
2022-08-17T10:54:39.802Z,30.10
2022-08-17T10:57:45.433Z,29.90
2022-08-17T11:00:43.553Z,29.90
2022-08-17T11:03:32.795Z,29.80
2022-08-17T11:06:32.100Z,29.70
2022-08-17T11:10:02.882Z,29.90
2022-08-17T11:13:08.921Z,30.30
2022-08-17T11:16:15.365Z,30.60
2022-08-17T11:19:10.534Z,30.80
2022-08-17T11:22:14.925Z,31.00
2022-08-17T11:25:17.262Z,31.10
2022-08-17T11:28:20.465Z,31.10
2022-08-17T11:31:38.539Z,30.80
2022-08-17T11:34:27.950Z,30.70
2022-08-17T11:37:55.208Z,30.70
2022-08-17T11:40:46.506Z,30.80
2022-08-17T11:44:04.125Z,30.80
2022-08-17T11:48:23.878Z,30.80
2022-08-17T11:51:27.824Z,30.90
2022-08-17T11:54:34.455Z,30.90
2022-08-17T11:57:27.045Z,31.00
2022-08-17T12:00:58.311Z,31.00
2022-08-17T12:03:55.241Z,30.90
2022-08-17T12:07:05.446Z,30.70
2022-08-17T12:09:53.567Z,30.40
2022-08-17T12:12:44.114Z,30.40
2022-08-17T12:15:42.014Z,30.70
2022-08-17T12:18:35.473Z,30.80
2022-08-17T12:21:41.943Z,31.10
2022-08-17T12:24:45.381Z,31.20
2022-08-17T12:27:46.204Z,31.30
2022-08-17T12:30:48.481Z,31.20
2022-08-17T12:33:43.633Z,31.20
2022-08-17T12:36:32.582Z,31.10
2022-08-17T12:39:21.889Z,31.00
2022-08-17T12:42:22.937Z,31.00
2022-08-17T12:45:23.720Z,31.00
2022-08-17T12:48:22.126Z,31.00
2022-08-17T12:51:08.927Z,31.10
2022-08-17T12:53:55.913Z,31.30
2022-08-17T12:56:45.897Z,31.30
2022-08-17T12:59:33.761Z,31.20
2022-08-17T13:02:30.199Z,31.30
2022-08-17T13:05:27.695Z,31.30
2022-08-17T13:08:39.088Z,31.60
2022-08-17T13:11:25.643Z,31.90
2022-08-17T13:14:11.518Z,32.10
2022-08-17T13:17:02.421Z,32.10
2022-08-17T13:19:50.799Z,32.20
2022-08-17T13:22:37.440Z,32.20
2022-08-17T13:25:24.353Z,32.40
2022-08-17T13:28:18.969Z,32.50
2022-08-17T13:31:28.010Z,32.50
2022-08-17T13:34:14.041Z,32.50
2022-08-17T13:37:30.127Z,32.40
2022-08-17T13:40:18.981Z,32.30
2022-08-17T13:43:05.531Z,32.10
2022-08-17T13:45:51.897Z,32.10
2022-08-17T13:48:38.304Z,31.90
2022-08-17T13:51:31.038Z,31.90
2022-08-17T13:54:31.026Z,31.80
2022-08-17T13:57:23.334Z,31.80
2022-08-17T14:00:33.094Z,31.90
2022-08-17T14:03:20.223Z,31.90
2022-08-17T14:06:07.370Z,31.90
2022-08-17T14:08:55.887Z,32.00
2022-08-17T14:11:43.215Z,32.00
2022-08-17T14:14:30.165Z,31.90
2022-08-17T14:17:17.051Z,31.90
2022-08-17T14:20:04.510Z,31.90
2022-08-17T14:22:53.626Z,31.90
2022-08-17T14:25:40.143Z,31.90
2022-08-17T14:28:25.901Z,32.00
2022-08-17T14:31:13.962Z,31.90
2022-08-17T14:34:00.033Z,31.80
2022-08-17T14:36:48.672Z,31.80
2022-08-17T14:39:34.589Z,31.70
2022-08-17T14:42:20.576Z,31.70
2022-08-17T14:45:32.395Z,31.70
2022-08-17T14:48:16.542Z,31.70
2022-08-17T14:51:04.786Z,31.70
2022-08-17T14:53:50.890Z,31.70
2022-08-17T14:56:39.084Z,31.60
2022-08-17T14:59:26.695Z,31.60
2022-08-17T15:02:13.281Z,31.50
2022-08-17T15:05:05.307Z,31.50
2022-08-17T15:07:53.441Z,31.40
2022-08-17T15:10:41.040Z,31.40
2022-08-17T15:13:27.607Z,31.30
2022-08-17T15:16:13.820Z,31.20
2022-08-17T15:19:00.221Z,31.20
2022-08-17T15:21:46.926Z,31.30
2022-08-17T15:24:33.654Z,31.30
2022-08-17T15:27:24.260Z,31.30
2022-08-17T15:30:19.072Z,31.30
2022-08-17T15:33:05.547Z,31.30
2022-08-17T15:35:53.356Z,31.30
2022-08-17T15:38:39.487Z,31.20
2022-08-17T15:41:28.112Z,31.20
2022-08-17T15:44:14.261Z,31.20
2022-08-17T15:47:00.381Z,31.10
2022-08-17T15:49:46.854Z,31.30
2022-08-17T15:52:40.021Z,31.20
2022-08-17T15:55:28.378Z,31.30
2022-08-17T15:58:14.536Z,31.30
2022-08-17T16:01:14.868Z,31.20
2022-08-17T16:04:14.894Z,31.20
2022-08-17T16:07:11.307Z,31.10
2022-08-17T16:09:57.167Z,31.00
2022-08-17T16:12:47.994Z,30.90
2022-08-17T16:15:34.253Z,30.80
2022-08-17T16:18:20.820Z,30.70
2022-08-17T16:21:31.229Z,30.60
2022-08-17T16:24:29.948Z,30.50
2022-08-17T16:27:15.806Z,30.50
2022-08-17T16:30:02.772Z,30.40
2022-08-17T16:32:51.750Z,30.40
2022-08-17T16:35:38.266Z,30.40
2022-08-17T16:38:24.615Z,30.30
2022-08-17T16:41:10.809Z,30.30
2022-08-17T16:43:56.898Z,30.30
2022-08-17T16:46:45.764Z,30.20
2022-08-17T16:49:37.481Z,30.20
2022-08-17T16:52:32.437Z,30.10
2022-08-17T16:55:21.913Z,30.10
2022-08-17T16:58:08.872Z,30.00
2022-08-17T17:00:59.754Z,30.00
2022-08-17T17:03:53.100Z,29.90
2022-08-17T17:07:07.049Z,29.90
2022-08-17T17:09:55.446Z,29.80
2022-08-17T17:13:01.517Z,29.70
2022-08-17T17:16:04.149Z,29.60
2022-08-17T17:18:53.238Z,29.60
2022-08-17T17:21:55.973Z,29.50
2022-08-17T17:25:14.245Z,29.50
2022-08-17T17:28:15.962Z,29.40
2022-08-17T17:31:17.713Z,29.30
2022-08-17T17:34:06.231Z,29.20
2022-08-17T17:37:01.567Z,29.20
2022-08-17T17:39:55.866Z,29.10
2022-08-17T17:42:43.761Z,29.00
2022-08-17T17:45:37.347Z,29.00
2022-08-17T17:48:23.666Z,29.00
2022-08-17T17:52:09.419Z,28.90
2022-08-17T17:55:18.646Z,28.80
2022-08-17T17:58:21.825Z,28.70
2022-08-17T18:01:08.246Z,28.70
2022-08-17T18:04:20.730Z,28.60
2022-08-17T18:07:32.437Z,28.50
2022-08-17T18:10:48.963Z,28.40
2022-08-17T18:13:50.575Z,28.30
2022-08-17T18:16:42.794Z,28.20
2022-08-17T18:19:31.411Z,28.20
2022-08-17T18:22:20.168Z,28.10
2022-08-17T18:25:59.393Z,28.00
2022-08-17T18:28:51.309Z,27.90
2022-08-17T18:31:37.210Z,27.80
2022-08-17T18:37:49.216Z,27.60
2022-08-17T18:40:37.686Z,27.50
2022-08-17T18:43:43.881Z,27.40
2022-08-17T18:46:40.115Z,27.30
2022-08-17T18:49:28.634Z,27.20
2022-08-17T18:52:34.111Z,27.20
2022-08-17T18:55:30.021Z,27.00
2022-08-17T18:58:24.290Z,27.00
2022-08-17T19:01:21.291Z,27.00
2022-08-17T19:04:34.718Z,26.90
2022-08-17T19:07:24.178Z,26.80
2022-08-17T19:10:19.540Z,26.70
2022-08-17T19:13:14.116Z,26.70
2022-08-17T19:16:51.000Z,26.60
2022-08-17T19:19:49.360Z,26.60
2022-08-17T19:23:18.863Z,26.50
2022-08-17T19:26:11.937Z,26.40
2022-08-17T19:29:29.620Z,26.40
2022-08-17T19:32:19.549Z,26.20
2022-08-17T19:35:11.400Z,26.10
2022-08-17T19:38:24.982Z,26.00
2022-08-17T19:41:28.228Z,26.00
2022-08-17T19:44:33.219Z,25.90
2022-08-17T19:47:53.658Z,26.00
2022-08-17T19:50:54.207Z,25.90
2022-08-17T19:54:05.950Z,25.90
2022-08-17T19:57:12.446Z,25.80
2022-08-17T20:00:05.026Z,25.80
2022-08-17T20:03:18.775Z,25.80
2022-08-17T20:06:15.052Z,25.70
2022-08-17T20:09:14.775Z,25.60
2022-08-17T20:12:14.010Z,25.50
2022-08-17T20:15:33.013Z,25.60
2022-08-17T20:18:30.866Z,25.60
2022-08-17T20:21:49.065Z,25.50
2022-08-17T20:24:41.286Z,25.50
2022-08-17T20:27:47.844Z,25.50
2022-08-17T20:30:41.991Z,25.50
2022-08-17T20:33:34.393Z,25.50
2022-08-17T20:36:24.300Z,25.50
2022-08-17T20:39:32.191Z,25.50
2022-08-17T20:42:20.671Z,25.40
2022-08-17T20:45:21.920Z,25.50
2022-08-17T20:48:36.871Z,25.40
2022-08-17T20:51:27.301Z,25.40
2022-08-17T20:54:19.455Z,25.50
2022-08-17T20:57:09.241Z,25.50
2022-08-17T21:00:28.633Z,25.50
2022-08-17T21:03:23.851Z,25.50
2022-08-17T21:06:17.360Z,25.50
2022-08-17T21:09:13.224Z,25.50
2022-08-17T21:12:04.454Z,25.50
2022-08-17T21:15:05.520Z,25.50
2022-08-17T21:18:15.025Z,25.50
2022-08-17T21:21:07.410Z,25.50
2022-08-17T21:23:53.492Z,25.50
2022-08-17T21:27:00.159Z,25.50
2022-08-17T21:30:06.723Z,25.40
2022-08-17T21:33:25.177Z,25.30
2022-08-17T21:36:15.158Z,25.30
2022-08-17T21:39:08.831Z,25.20
2022-08-17T21:41:56.922Z,25.20
2022-08-17T21:44:52.102Z,25.20
2022-08-17T21:47:47.491Z,25.20
2022-08-17T21:50:34.325Z,25.10
2022-08-17T21:53:32.922Z,25.00
2022-08-17T21:56:47.037Z,25.00
2022-08-17T21:59:36.987Z,25.00
2022-08-17T22:02:33.783Z,25.00
2022-08-17T22:05:32.845Z,25.00
2022-08-17T22:08:22.552Z,25.00
2022-08-17T22:11:09.234Z,25.00
2022-08-17T22:14:05.490Z,25.00
2022-08-17T22:17:25.746Z,24.90
2022-08-17T22:20:18.900Z,24.80
2022-08-17T22:23:30.307Z,24.80
2022-08-17T22:26:18.338Z,24.60
2022-08-17T22:29:04.265Z,24.50
2022-08-17T22:31:56.528Z,24.40
2022-08-17T22:34:42.408Z,24.10
2022-08-17T22:37:29.339Z,23.40
2022-08-17T22:40:31.695Z,22.80
2022-08-17T22:43:24.223Z,21.90
2022-08-17T22:46:13.060Z,21.30
2022-08-17T22:48:59.775Z,20.70
2022-08-17T22:51:45.746Z,20.40
2022-08-17T22:54:50.813Z,20.20
2022-08-17T22:57:55.349Z,19.90
2022-08-17T23:00:44.995Z,19.70
2022-08-17T23:03:31.392Z,19.50
2022-08-17T23:06:17.277Z,19.40
2022-08-17T23:09:05.831Z,19.50
2022-08-17T23:11:58.562Z,19.40
2022-08-17T23:14:46.966Z,19.40
2022-08-17T23:17:37.092Z,19.30
2022-08-17T23:20:23.924Z,19.30
2022-08-17T23:23:13.878Z,19.20
2022-08-17T23:25:59.894Z,19.10
2022-08-17T23:28:46.153Z,19.00
2022-08-17T23:31:34.799Z,18.90
2022-08-17T23:34:21.292Z,18.90
2022-08-17T23:37:09.640Z,18.80
2022-08-17T23:39:55.677Z,18.80
2022-08-17T23:42:46.291Z,18.80
2022-08-17T23:45:33.262Z,18.80
2022-08-17T23:48:28.426Z,18.80
2022-08-17T23:51:27.393Z,18.80
2022-08-17T23:54:22.796Z,18.80
2022-08-17T23:57:09.679Z,18.90
2022-08-17T23:59:56.034Z,18.90
